Globe, Arizona
Current Conditions -  °F | °C
As of 6:47 PM on Wednesday 22 Oct 2014 (Local Time) from KIWA Reporting Station
Few Clouds Few Clouds  
Wind Chill: 27°   Ceiling: Unl
Heat Index: 27°   Visibility: 20mi
Dew Point:   Wind: 0mph
Humidity: 32%   Direction: NA
Pressure: 29.95"   Gusts: NA
Location:  33.4°N, 110.78°W
Report Text: KIWA 230147Z 00000KT 20SM FEW250 27/09 A2995
Loading
Personal Weather Stations






























Interactive Weather Map
Tropical Storm Tracking
New forecast layout! Learn more

10-Day Weather Forecast

Advertisements
Track Severe Weather on mobile